EmailTwitter


Observations de surface / France / LFBO (07630)

Régions: Québec | Canada | États-Unis | Europe | France | UK | Ailleurs
Station
Affichage
Infos & localisation pour LFBO (07630) | Aide pour décoder les METARs

Observations prises le 2020-08-03 à 11H30 UTC à TOULOUSE/BLAGNAC, FR (LFBO)

Température: 23.0 Celsius

Point de rosée: 9.0 Celsius

Humidité relative: 41%

Indice Humidex: 24.

Vents: Ouest-nord-ouest à 22 km/h ou 12 noeuds.

Rafale du vent: 57 km/h ou 31 noeuds.

Pression au niveau moyen de la mer: 101.80 kilopascals.

Observation METAR:

LFBO 031130Z AUTO 29012G31KT 240V360 CAVOK 23/09 Q1018 TEMPO SCT050TCU=